sensor_id;sensor_type;location;lat;lon;timestamp;pressure;altitude;pressure_sealevel;temperature;humidity
34742;BME280;20968;42.696;23.360;2022-10-16T00:01:33;95882.91;;;13.33;64.20
34742;BME280;20968;42.696;23.360;2022-10-16T00:03:59;95896.84;;;13.38;64.98
34742;BME280;20968;42.696;23.360;2022-10-16T00:06:26;95889.31;;;13.39;64.91
34742;BME280;20968;42.696;23.360;2022-10-16T00:08:52;95887.78;;;13.38;64.50
34742;BME280;20968;42.696;23.360;2022-10-16T00:11:38;95892.94;;;13.45;63.93
34742;BME280;20968;42.696;23.360;2022-10-16T00:14:11;95892.63;;;13.43;64.26
34742;BME280;20968;42.696;23.360;2022-10-16T00:16:38;95891.59;;;13.40;63.80
34742;BME280;20968;42.696;23.360;2022-10-16T00:19:04;95895.88;;;13.41;64.09
34742;BME280;20968;42.696;23.360;2022-10-16T00:21:30;95890.06;;;13.39;64.06
34742;BME280;20968;42.696;23.360;2022-10-16T00:24:01;95904.47;;;13.43;64.55
34742;BME280;20968;42.696;23.360;2022-10-16T00:26:29;95901.44;;;13.41;63.74
34742;BME280;20968;42.696;23.360;2022-10-16T00:28:55;95911.44;;;13.39;63.87
34742;BME280;20968;42.696;23.360;2022-10-16T00:31:21;95901.22;;;13.30;63.84
34742;BME280;20968;42.696;23.360;2022-10-16T00:33:48;95906.94;;;13.27;64.43
34742;BME280;20968;42.696;23.360;2022-10-16T00:36:16;95906.50;;;13.28;64.20
34742;BME280;20968;42.696;23.360;2022-10-16T00:38:42;95917.81;;;13.30;64.06
34742;BME280;20968;42.696;23.360;2022-10-16T00:41:11;95910.75;;;13.29;63.88
34742;BME280;20968;42.696;23.360;2022-10-16T00:43:52;95911.53;;;13.30;63.84
34742;BME280;20968;42.696;23.360;2022-10-16T00:51:19;95902.84;;;13.22;64.02
34742;BME280;20968;42.696;23.360;2022-10-16T00:53:46;95907.34;;;13.20;64.05
34742;BME280;20968;42.696;23.360;2022-10-16T00:56:11;95896.97;;;13.15;64.21
34742;BME280;20968;42.696;23.360;2022-10-16T00:58:38;95903.44;;;13.12;64.53
34742;BME280;20968;42.696;23.360;2022-10-16T01:01:03;95905.75;;;13.14;63.93
34742;BME280;20968;42.696;23.360;2022-10-16T01:03:32;95909.75;;;13.13;64.51
34742;BME280;20968;42.696;23.360;2022-10-16T01:09:08;95930.13;;;13.15;63.44
34742;BME280;20968;42.696;23.360;2022-10-16T01:15:00;95917.63;;;13.05;64.74
34742;BME280;20968;42.696;23.360;2022-10-16T01:22:36;95910.88;;;13.06;63.88
34742;BME280;20968;42.696;23.360;2022-10-16T01:25:09;95897.13;;;12.97;64.29
34742;BME280;20968;42.696;23.360;2022-10-16T01:27:39;95896.66;;;12.99;64.35
34742;BME280;20968;42.696;23.360;2022-10-16T01:30:17;95897.91;;;12.98;64.78
34742;BME280;20968;42.696;23.360;2022-10-16T01:32:55;95916.59;;;13.03;64.60
34742;BME280;20968;42.696;23.360;2022-10-16T01:35:26;95905.41;;;12.97;63.76
34742;BME280;20968;42.696;23.360;2022-10-16T01:38:10;95901.81;;;12.91;64.58
34742;BME280;20968;42.696;23.360;2022-10-16T01:40:39;95904.09;;;12.93;63.81
34742;BME280;20968;42.696;23.360;2022-10-16T01:43:13;95902.28;;;12.90;64.19
34742;BME280;20968;42.696;23.360;2022-10-16T01:45:41;95915.81;;;12.88;63.95
34742;BME280;20968;42.696;23.360;2022-10-16T01:48:12;95916.03;;;12.75;64.44
34742;BME280;20968;42.696;23.360;2022-10-16T01:50:41;95918.31;;;12.77;64.03
34742;BME280;20968;42.696;23.360;2022-10-16T01:53:11;95915.47;;;12.71;63.97
34742;BME280;20968;42.696;23.360;2022-10-16T01:55:41;95916.97;;;12.72;64.27
34742;BME280;20968;42.696;23.360;2022-10-16T01:58:12;95918.44;;;12.68;64.20
34742;BME280;20968;42.696;23.360;2022-10-16T02:00:39;95918.88;;;12.66;64.29
34742;BME280;20968;42.696;23.360;2022-10-16T02:03:07;95916.13;;;12.66;64.33
34742;BME280;20968;42.696;23.360;2022-10-16T02:05:41;95923.47;;;12.69;65.08
34742;BME280;20968;42.696;23.360;2022-10-16T02:08:09;95930.78;;;12.72;65.47
34742;BME280;20968;42.696;23.360;2022-10-16T02:10:35;95931.28;;;12.71;65.44
34742;BME280;20968;42.696;23.360;2022-10-16T02:13:26;95943.88;;;12.72;65.12
34742;BME280;20968;42.696;23.360;2022-10-16T02:15:53;95942.13;;;12.60;64.57
34742;BME280;20968;42.696;23.360;2022-10-16T02:18:18;95929.97;;;12.43;64.47
34742;BME280;20968;42.696;23.360;2022-10-16T02:20:55;95940.06;;;12.46;63.90
34742;BME280;20968;42.696;23.360;2022-10-16T02:26:09;95942.81;;;12.46;65.57
34742;BME280;20968;42.696;23.360;2022-10-16T02:28:41;95944.34;;;12.47;65.12
34742;BME280;20968;42.696;23.360;2022-10-16T02:31:10;95940.25;;;12.42;65.17
34742;BME280;20968;42.696;23.360;2022-10-16T02:33:37;95951.59;;;12.44;64.46
34742;BME280;20968;42.696;23.360;2022-10-16T02:36:05;95952.88;;;12.35;65.38
34742;BME280;20968;42.696;23.360;2022-10-16T02:38:31;95947.88;;;12.24;64.84
34742;BME280;20968;42.696;23.360;2022-10-16T02:40:58;95937.78;;;12.21;65.09
34742;BME280;20968;42.696;23.360;2022-10-16T02:43:24;95942.09;;;12.22;64.83
34742;BME280;20968;42.696;23.360;2022-10-16T02:45:50;95943.59;;;12.23;64.96
34742;BME280;20968;42.696;23.360;2022-10-16T02:48:16;95956.78;;;12.28;64.58
34742;BME280;20968;42.696;23.360;2022-10-16T02:50:41;95949.78;;;12.18;64.85
34742;BME280;20968;42.696;23.360;2022-10-16T02:53:07;95962.91;;;12.23;65.13
34742;BME280;20968;42.696;23.360;2022-10-16T02:55:32;95964.63;;;12.21;64.58
34742;BME280;20968;42.696;23.360;2022-10-16T02:57:58;95961.28;;;12.17;65.26
34742;BME280;20968;42.696;23.360;2022-10-16T03:00:23;95965.59;;;12.18;65.26
34742;BME280;20968;42.696;23.360;2022-10-16T03:02:49;95963.03;;;12.05;65.02
34742;BME280;20968;42.696;23.360;2022-10-16T03:05:15;95965.28;;;12.16;64.36
34742;BME280;20968;42.696;23.360;2022-10-16T03:07:41;95955.69;;;12.02;64.84
34742;BME280;20968;42.696;23.360;2022-10-16T03:10:06;95963.38;;;11.98;64.94
34742;BME280;20968;42.696;23.360;2022-10-16T03:12:32;95961.91;;;11.88;64.74
34742;BME280;20968;42.696;23.360;2022-10-16T03:14:58;95967.28;;;11.83;64.83
34742;BME280;20968;42.696;23.360;2022-10-16T03:17:25;95976.34;;;11.83;64.37
34742;BME280;20968;42.696;23.360;2022-10-16T03:19:50;95974.19;;;11.78;65.15
34742;BME280;20968;42.696;23.360;2022-10-16T03:22:16;95976.03;;;11.81;65.17
34742;BME280;20968;42.696;23.360;2022-10-16T03:24:41;95971.94;;;11.68;64.44
34742;BME280;20968;42.696;23.360;2022-10-16T03:27:07;95976.72;;;11.67;64.57
34742;BME280;20968;42.696;23.360;2022-10-16T03:29:32;95978.84;;;11.63;65.10
34742;BME280;20968;42.696;23.360;2022-10-16T03:31:58;95986.06;;;11.61;65.46
34742;BME280;20968;42.696;23.360;2022-10-16T03:34:24;95965.56;;;11.53;64.82
34742;BME280;20968;42.696;23.360;2022-10-16T03:36:50;95967.38;;;11.47;65.40
34742;BME280;20968;42.696;23.360;2022-10-16T03:39:15;95977.50;;;11.50;64.95
34742;BME280;20968;42.696;23.360;2022-10-16T03:41:40;95981.03;;;11.42;65.90
34742;BME280;20968;42.696;23.360;2022-10-16T03:44:06;95968.97;;;11.21;66.38
34742;BME280;20968;42.696;23.360;2022-10-16T03:46:31;95979.25;;;11.21;66.68
34742;BME280;20968;42.696;23.360;2022-10-16T03:48:57;95970.66;;;11.19;66.09
34742;BME280;20968;42.696;23.360;2022-10-16T03:51:22;95968.06;;;11.24;65.94
34742;BME280;20968;42.696;23.360;2022-10-16T03:53:48;95972.50;;;11.31;65.94
34742;BME280;20968;42.696;23.360;2022-10-16T03:56:13;95968.38;;;11.26;65.74
34742;BME280;20968;42.696;23.360;2022-10-16T03:58:39;95969.28;;;11.32;66.15
34742;BME280;20968;42.696;23.360;2022-10-16T04:01:04;95966.66;;;11.38;65.76
34742;BME280;20968;42.696;23.360;2022-10-16T04:03:30;95974.59;;;11.45;65.51
34742;BME280;20968;42.696;23.360;2022-10-16T04:05:55;95967.88;;;11.46;65.51
34742;BME280;20968;42.696;23.360;2022-10-16T04:08:20;95972.59;;;11.54;65.24
34742;BME280;20968;42.696;23.360;2022-10-16T04:10:46;95969.84;;;11.54;65.43
34742;BME280;20968;42.696;23.360;2022-10-16T04:13:12;95980.56;;;11.52;65.99
34742;BME280;20968;42.696;23.360;2022-10-16T04:15:37;95977.06;;;11.52;65.92
34742;BME280;20968;42.696;23.360;2022-10-16T04:18:03;95972.75;;;11.51;65.72
34742;BME280;20968;42.696;23.360;2022-10-16T04:20:29;95969.97;;;11.51;66.04
34742;BME280;20968;42.696;23.360;2022-10-16T04:22:55;95973.09;;;11.53;65.41
34742;BME280;20968;42.696;23.360;2022-10-16T04:25:21;95975.38;;;11.54;64.82
34742;BME280;20968;42.696;23.360;2022-10-16T04:27:46;95981.19;;;11.56;64.81
34742;BME280;20968;42.696;23.360;2022-10-16T04:30:12;95978.13;;;11.54;65.24
34742;BME280;20968;42.696;23.360;2022-10-16T04:32:38;95983.47;;;11.58;64.80
34742;BME280;20968;42.696;23.360;2022-10-16T04:35:03;95984.13;;;11.53;65.45
34742;BME280;20968;42.696;23.360;2022-10-16T04:37:29;95980.72;;;11.49;65.60
34742;BME280;20968;42.696;23.360;2022-10-16T04:39:55;95985.00;;;11.50;65.33
34742;BME280;20968;42.696;23.360;2022-10-16T04:42:21;95990.38;;;11.53;65.13
34742;BME280;20968;42.696;23.360;2022-10-16T04:44:47;95986.22;;;11.49;65.26
34742;BME280;20968;42.696;23.360;2022-10-16T04:47:12;95995.72;;;11.48;65.24
34742;BME280;20968;42.696;23.360;2022-10-16T04:49:38;96001.41;;;11.53;65.38
34742;BME280;20968;42.696;23.360;2022-10-16T04:52:04;96005.09;;;11.50;65.30
34742;BME280;20968;42.696;23.360;2022-10-16T04:54:30;96003.72;;;11.46;65.20
34742;BME280;20968;42.696;23.360;2022-10-16T04:56:55;96005.22;;;11.47;64.99
34742;BME280;20968;42.696;23.360;2022-10-16T04:59:21;96008.28;;;11.49;65.04
34742;BME280;20968;42.696;23.360;2022-10-16T05:01:47;96020.72;;;11.53;65.21
34742;BME280;20968;42.696;23.360;2022-10-16T05:04:13;96019.00;;;11.47;65.74
34742;BME280;20968;42.696;23.360;2022-10-16T05:06:40;96033.28;;;11.45;64.80
34742;BME280;20968;42.696;23.360;2022-10-16T05:09:06;96019.06;;;11.38;65.64
34742;BME280;20968;42.696;23.360;2022-10-16T05:11:32;96021.97;;;11.34;65.22
34742;BME280;20968;42.696;23.360;2022-10-16T05:13:57;96034.81;;;11.37;65.63
34742;BME280;20968;42.696;23.360;2022-10-16T05:16:23;96018.75;;;11.36;66.81
34742;BME280;20968;42.696;23.360;2022-10-16T05:18:48;96028.53;;;11.37;66.71
34742;BME280;20968;42.696;23.360;2022-10-16T05:21:14;96029.78;;;11.36;67.04
34742;BME280;20968;42.696;23.360;2022-10-16T05:23:39;96035.13;;;11.39;67.14
34742;BME280;20968;42.696;23.360;2022-10-16T05:26:05;96029.13;;;11.50;66.36
34742;BME280;20968;42.696;23.360;2022-10-16T05:28:31;96038.94;;;11.51;66.27
34742;BME280;20968;42.696;23.360;2022-10-16T05:30:56;96037.41;;;11.59;66.48
34742;BME280;20968;42.696;23.360;2022-10-16T05:33:23;96034.34;;;11.65;66.82
34742;BME280;20968;42.696;23.360;2022-10-16T05:35:50;96034.03;;;11.63;66.11
34742;BME280;20968;42.696;23.360;2022-10-16T05:38:16;96035.97;;;11.81;65.55
34742;BME280;20968;42.696;23.360;2022-10-16T05:40:42;96040.38;;;11.87;65.73
34742;BME280;20968;42.696;23.360;2022-10-16T05:43:07;96033.50;;;11.83;65.21
34742;BME280;20968;42.696;23.360;2022-10-16T05:45:33;96049.03;;;12.13;64.83
34742;BME280;20968;42.696;23.360;2022-10-16T05:47:59;96040.13;;;12.18;64.22
34742;BME280;20968;42.696;23.360;2022-10-16T05:50:25;96049.78;;;12.22;64.06
34742;BME280;20968;42.696;23.360;2022-10-16T05:52:51;96058.78;;;12.32;64.01
34742;BME280;20968;42.696;23.360;2022-10-16T05:55:16;96034.72;;;12.23;64.43
34742;BME280;20968;42.696;23.360;2022-10-16T05:57:41;96057.41;;;12.27;64.28
34742;BME280;20968;42.696;23.360;2022-10-16T06:00:07;96062.16;;;12.27;67.09
34742;BME280;20968;42.696;23.360;2022-10-16T06:02:33;96067.56;;;12.53;72.39
34742;BME280;20968;42.696;23.360;2022-10-16T06:04:58;96071.06;;;13.10;71.52
34742;BME280;20968;42.696;23.360;2022-10-16T06:07:24;96073.75;;;13.19;65.52
34742;BME280;20968;42.696;23.360;2022-10-16T06:09:50;96073.69;;;13.27;64.62
34742;BME280;20968;42.696;23.360;2022-10-16T06:12:16;96079.84;;;13.46;63.64
34742;BME280;20968;42.696;23.360;2022-10-16T06:14:42;96081.66;;;13.63;63.49
34742;BME280;20968;42.696;23.360;2022-10-16T06:17:07;96079.13;;;13.74;61.53
34742;BME280;20968;42.696;23.360;2022-10-16T06:19:33;96084.47;;;13.78;61.02
34742;BME280;20968;42.696;23.360;2022-10-16T06:22:01;96090.84;;;13.84;62.03
34742;BME280;20968;42.696;23.360;2022-10-16T06:24:27;96088.38;;;14.00;60.55
34742;BME280;20968;42.696;23.360;2022-10-16T06:26:55;96092.56;;;14.10;62.14
34742;BME280;20968;42.696;23.360;2022-10-16T06:29:21;96093.44;;;14.30;61.46
34742;BME280;20968;42.696;23.360;2022-10-16T06:31:46;96093.09;;;14.57;61.16
34742;BME280;20968;42.696;23.360;2022-10-16T06:34:12;96088.91;;;14.81;58.90
34742;BME280;20968;42.696;23.360;2022-10-16T06:36:38;96107.03;;;14.97;58.10
34742;BME280;20968;42.696;23.360;2022-10-16T06:39:04;96103.44;;;14.91;58.57
34742;BME280;20968;42.696;23.360;2022-10-16T06:41:31;96105.38;;;15.05;57.73
34742;BME280;20968;42.696;23.360;2022-10-16T06:43:57;96102.91;;;15.07;57.36
34742;BME280;20968;42.696;23.360;2022-10-16T06:46:24;96109.69;;;15.06;57.90
34742;BME280;20968;42.696;23.360;2022-10-16T06:48:50;96118.16;;;15.17;57.90
34742;BME280;20968;42.696;23.360;2022-10-16T06:51:17;96122.25;;;15.21;56.34
34742;BME280;20968;42.696;23.360;2022-10-16T06:53:45;96115.78;;;15.10;56.63
34742;BME280;20968;42.696;23.360;2022-10-16T06:58:37;96124.72;;;14.99;57.28
34742;BME280;20968;42.696;23.360;2022-10-16T07:01:03;96136.25;;;15.12;56.99
34742;BME280;20968;42.696;23.360;2022-10-16T07:03:28;96133.41;;;15.07;56.48
34742;BME280;20968;42.696;23.360;2022-10-16T07:05:54;96121.00;;;15.02;56.99
34742;BME280;20968;42.696;23.360;2022-10-16T07:08:19;96125.13;;;14.92;56.51
34742;BME280;20968;42.696;23.360;2022-10-16T07:10:44;96124.56;;;14.88;56.98
34742;BME280;20968;42.696;23.360;2022-10-16T07:13:10;96130.50;;;14.81;58.52
34742;BME280;20968;42.696;23.360;2022-10-16T07:15:38;96131.38;;;14.87;57.21
34742;BME280;20968;42.696;23.360;2022-10-16T07:18:04;96127.28;;;14.83;58.06
34742;BME280;20968;42.696;23.360;2022-10-16T07:20:29;96142.47;;;14.87;58.31
34742;BME280;20968;42.696;23.360;2022-10-16T07:22:55;96129.97;;;14.77;57.63
34742;BME280;20968;42.696;23.360;2022-10-16T07:25:20;96132.53;;;14.81;58.42
34742;BME280;20968;42.696;23.360;2022-10-16T07:27:46;96138.50;;;14.94;58.17
34742;BME280;20968;42.696;23.360;2022-10-16T07:30:11;96129.94;;;14.92;57.97
34742;BME280;20968;42.696;23.360;2022-10-16T07:32:37;96135.66;;;14.88;58.17
34742;BME280;20968;42.696;23.360;2022-10-16T07:35:03;96143.41;;;14.84;57.80
34742;BME280;20968;42.696;23.360;2022-10-16T07:37:29;96141.69;;;14.87;58.42
34742;BME280;20968;42.696;23.360;2022-10-16T07:39:54;96132.22;;;14.93;58.97
34742;BME280;20968;42.696;23.360;2022-10-16T07:42:19;96139.22;;;14.75;58.71
34742;BME280;20968;42.696;23.360;2022-10-16T07:44:45;96133.47;;;14.92;58.62
34742;BME280;20968;42.696;23.360;2022-10-16T07:47:10;96140.13;;;15.00;59.29
34742;BME280;20968;42.696;23.360;2022-10-16T07:49:36;96140.69;;;15.04;58.72
34742;BME280;20968;42.696;23.360;2022-10-16T07:52:01;96142.00;;;15.09;59.11
34742;BME280;20968;42.696;23.360;2022-10-16T07:54:27;96135.28;;;15.15;58.03
34742;BME280;20968;42.696;23.360;2022-10-16T07:56:52;96146.59;;;15.26;58.90
34742;BME280;20968;42.696;23.360;2022-10-16T07:59:18;96145.63;;;15.15;58.72
34742;BME280;20968;42.696;23.360;2022-10-16T08:01:43;96147.13;;;15.30;58.63
34742;BME280;20968;42.696;23.360;2022-10-16T08:04:09;96150.59;;;15.45;57.90
34742;BME280;20968;42.696;23.360;2022-10-16T08:06:36;96147.75;;;15.59;57.62
34742;BME280;20968;42.696;23.360;2022-10-16T08:09:02;96151.41;;;15.51;57.81
34742;BME280;20968;42.696;23.360;2022-10-16T08:11:27;96142.81;;;15.69;58.36
34742;BME280;20968;42.696;23.360;2022-10-16T08:13:53;96145.03;;;15.65;57.29
34742;BME280;20968;42.696;23.360;2022-10-16T08:16:18;96143.63;;;15.75;57.51
34742;BME280;20968;42.696;23.360;2022-10-16T08:18:44;96148.75;;;15.82;58.00
34742;BME280;20968;42.696;23.360;2022-10-16T08:21:14;96145.84;;;15.91;57.25
34742;BME280;20968;42.696;23.360;2022-10-16T08:23:40;96142.84;;;15.94;56.51
34742;BME280;20968;42.696;23.360;2022-10-16T08:26:07;96137.56;;;15.96;58.39
34742;BME280;20968;42.696;23.360;2022-10-16T08:28:33;96137.34;;;16.00;56.39
34742;BME280;20968;42.696;23.360;2022-10-16T08:31:13;96128.06;;;16.08;57.10
34742;BME280;20968;42.696;23.360;2022-10-16T08:33:41;96124.25;;;16.06;54.94
34742;BME280;20968;42.696;23.360;2022-10-16T08:36:07;96141.00;;;16.11;56.58
34742;BME280;20968;42.696;23.360;2022-10-16T08:38:52;96136.59;;;16.55;63.27
34742;BME280;20968;42.696;23.360;2022-10-16T08:44:28;96127.19;;;17.20;60.40
34742;BME280;20968;42.696;23.360;2022-10-16T08:47:19;96134.94;;;17.47;57.11
34742;BME280;20968;42.696;23.360;2022-10-16T08:49:56;96128.22;;;17.70;56.21
34742;BME280;20968;42.696;23.360;2022-10-16T08:52:25;96132.28;;;17.74;54.75
34742;BME280;20968;42.696;23.360;2022-10-16T08:54:54;96138.47;;;18.05;53.49
34742;BME280;20968;42.696;23.360;2022-10-16T08:57:22;96138.03;;;18.34;52.85
34742;BME280;20968;42.696;23.360;2022-10-16T08:59:49;96136.53;;;18.44;51.08
34742;BME280;20968;42.696;23.360;2022-10-16T09:05:30;96146.44;;;18.56;48.32
34742;BME280;20968;42.696;23.360;2022-10-16T09:08:12;96134.50;;;18.61;46.97
34742;BME280;20968;42.696;23.360;2022-10-16T09:10:59;96132.47;;;18.78;47.42
34742;BME280;20968;42.696;23.360;2022-10-16T09:16:31;96137.03;;;19.08;46.38
34742;BME280;20968;42.696;23.360;2022-10-16T09:21:46;96130.16;;;19.26;45.27
34742;BME280;20968;42.696;23.360;2022-10-16T09:24:21;96133.16;;;19.39;46.02
34742;BME280;20968;42.696;23.360;2022-10-16T09:26:52;96131.88;;;19.51;46.17
34742;BME280;20968;42.696;23.360;2022-10-16T09:29:20;96138.19;;;19.56;46.28
34742;BME280;20968;42.696;23.360;2022-10-16T09:31:47;96127.44;;;19.77;45.48
34742;BME280;20968;42.696;23.360;2022-10-16T09:34:34;96129.91;;;19.91;44.70
34742;BME280;20968;42.696;23.360;2022-10-16T09:37:04;96124.19;;;19.62;43.33
34742;BME280;20968;42.696;23.360;2022-10-16T09:39:44;96122.28;;;19.92;43.65
34742;BME280;20968;42.696;23.360;2022-10-16T09:42:14;96133.44;;;19.97;43.94
34742;BME280;20968;42.696;23.360;2022-10-16T09:44:40;96136.19;;;20.08;44.24
34742;BME280;20968;42.696;23.360;2022-10-16T09:47:15;96125.88;;;20.33;41.49
34742;BME280;20968;42.696;23.360;2022-10-16T09:49:55;96127.66;;;20.30;42.16
34742;BME280;20968;42.696;23.360;2022-10-16T09:52:22;96127.19;;;20.26;42.95
34742;BME280;20968;42.696;23.360;2022-10-16T09:54:52;96115.06;;;20.47;42.10
34742;BME280;20968;42.696;23.360;2022-10-16T09:57:19;96114.09;;;20.80;41.87
34742;BME280;20968;42.696;23.360;2022-10-16T09:59:50;96108.72;;;20.47;41.27
34742;BME280;20968;42.696;23.360;2022-10-16T10:02:18;96121.13;;;20.57;41.26
34742;BME280;20968;42.696;23.360;2022-10-16T10:04:53;96106.41;;;20.86;41.70
34742;BME280;20968;42.696;23.360;2022-10-16T10:07:33;96108.97;;;20.84;40.98
34742;BME280;20968;42.696;23.360;2022-10-16T10:10:03;96113.59;;;21.05;40.45
34742;BME280;20968;42.696;23.360;2022-10-16T10:12:32;96110.28;;;21.30;40.68
34742;BME280;20968;42.696;23.360;2022-10-16T10:15:21;96114.22;;;21.22;39.53
34742;BME280;20968;42.696;23.360;2022-10-16T10:18:20;96103.56;;;21.15;41.12
34742;BME280;20968;42.696;23.360;2022-10-16T10:20:58;96105.59;;;21.14;39.48
34742;BME280;20968;42.696;23.360;2022-10-16T10:23:26;96100.06;;;21.33;40.00
34742;BME280;20968;42.696;23.360;2022-10-16T10:36:35;96089.63;;;21.76;40.12
34742;BME280;20968;42.696;23.360;2022-10-16T10:39:15;96087.84;;;21.96;39.50
34742;BME280;20968;42.696;23.360;2022-10-16T10:45:26;96085.09;;;21.91;38.38
34742;BME280;20968;42.696;23.360;2022-10-16T10:50:35;96070.50;;;22.29;37.29
34742;BME280;20968;42.696;23.360;2022-10-16T11:01:16;96071.03;;;22.28;35.91
34742;BME280;20968;42.696;23.360;2022-10-16T11:06:42;96057.66;;;22.52;37.11
34742;BME280;20968;42.696;23.360;2022-10-16T11:09:16;96061.56;;;22.49;36.22
34742;BME280;20968;42.696;23.360;2022-10-16T11:12:11;96056.91;;;22.52;35.66
34742;BME280;20968;42.696;23.360;2022-10-16T11:14:42;96053.06;;;22.68;36.80
34742;BME280;20968;42.696;23.360;2022-10-16T11:20:34;96041.13;;;22.93;35.67
34742;BME280;20968;42.696;23.360;2022-10-16T11:25:31;96049.72;;;23.13;35.94
34742;BME280;20968;42.696;23.360;2022-10-16T11:30:31;96042.81;;;22.70;36.54
34742;BME280;20968;42.696;23.360;2022-10-16T11:33:27;96048.34;;;22.88;35.42
34742;BME280;20968;42.696;23.360;2022-10-16T11:36:16;96045.88;;;22.85;35.27
34742;BME280;20968;42.696;23.360;2022-10-16T11:42:22;96049.28;;;23.22;35.37
34742;BME280;20968;42.696;23.360;2022-10-16T11:50:35;96043.88;;;23.11;34.46
34742;BME280;20968;42.696;23.360;2022-10-16T11:55:49;96044.97;;;23.08;34.80
34742;BME280;20968;42.696;23.360;2022-10-16T12:00:53;96049.13;;;23.02;34.40
34742;BME280;20968;42.696;23.360;2022-10-16T12:03:54;96029.41;;;23.07;34.48
34742;BME280;20968;42.696;23.360;2022-10-16T12:06:31;96039.69;;;22.86;36.42
34742;BME280;20968;42.696;23.360;2022-10-16T12:08:59;96042.34;;;23.10;35.70
34742;BME280;20968;42.696;23.360;2022-10-16T12:16:37;96043.00;;;23.55;34.96
34742;BME280;20968;42.696;23.360;2022-10-16T12:19:14;96036.84;;;23.56;33.58
34742;BME280;20968;42.696;23.360;2022-10-16T12:21:41;96035.00;;;23.59;33.51
34742;BME280;20968;42.696;23.360;2022-10-16T12:24:21;96038.56;;;23.72;34.03
34742;BME280;20968;42.696;23.360;2022-10-16T12:26:48;96038.56;;;23.59;34.61
34742;BME280;20968;42.696;23.360;2022-10-16T12:32:04;96040.84;;;23.48;35.07
34742;BME280;20968;42.696;23.360;2022-10-16T12:34:42;96035.63;;;23.65;34.61
34742;BME280;20968;42.696;23.360;2022-10-16T12:37:35;96033.38;;;23.51;33.90
34742;BME280;20968;42.696;23.360;2022-10-16T12:40:13;96034.88;;;23.13;34.15
34742;BME280;20968;42.696;23.360;2022-10-16T12:42:39;96045.53;;;22.88;34.69
34742;BME280;20968;42.696;23.360;2022-10-16T12:45:33;96039.53;;;23.10;34.95
34742;BME280;20968;42.696;23.360;2022-10-16T12:48:01;96035.88;;;23.15;35.46
34742;BME280;20968;42.696;23.360;2022-10-16T12:52:59;96040.47;;;22.74;35.46
34742;BME280;20968;42.696;23.360;2022-10-16T12:55:26;96044.00;;;22.74;35.86
34742;BME280;20968;42.696;23.360;2022-10-16T13:00:54;96043.84;;;22.98;35.16
34742;BME280;20968;42.696;23.360;2022-10-16T13:14:14;96055.44;;;23.72;33.46
34742;BME280;20968;42.696;23.360;2022-10-16T13:21:59;96049.50;;;23.50;33.44
34742;BME280;20968;42.696;23.360;2022-10-16T13:29:39;96049.94;;;23.41;33.90
34742;BME280;20968;42.696;23.360;2022-10-16T13:32:10;96054.38;;;23.62;33.95
34742;BME280;20968;42.696;23.360;2022-10-16T13:34:45;96048.50;;;23.73;33.68
34742;BME280;20968;42.696;23.360;2022-10-16T13:37:37;96048.84;;;23.83;32.58
34742;BME280;20968;42.696;23.360;2022-10-16T13:40:20;96051.84;;;23.72;31.27
34742;BME280;20968;42.696;23.360;2022-10-16T13:42:45;96051.66;;;23.57;30.88
34742;BME280;20968;42.696;23.360;2022-10-16T13:45:19;96054.59;;;23.64;30.51
34742;BME280;20968;42.696;23.360;2022-10-16T13:47:45;96052.84;;;23.36;31.43
34742;BME280;20968;42.696;23.360;2022-10-16T13:50:18;96051.66;;;23.44;31.66
34742;BME280;20968;42.696;23.360;2022-10-16T13:52:44;96052.97;;;23.43;31.42
34742;BME280;20968;42.696;23.360;2022-10-16T13:55:15;96053.59;;;23.49;31.22
34742;BME280;20968;42.696;23.360;2022-10-16T13:57:42;96052.97;;;23.43;31.41
34742;BME280;20968;42.696;23.360;2022-10-16T14:00:25;96051.22;;;23.40;31.88
34742;BME280;20968;42.696;23.360;2022-10-16T14:03:22;96061.31;;;23.49;32.32
34742;BME280;20968;42.696;23.360;2022-10-16T14:05:49;96051.97;;;23.15;31.24
34742;BME280;20968;42.696;23.360;2022-10-16T14:08:16;96060.31;;;23.20;32.08
34742;BME280;20968;42.696;23.360;2022-10-16T14:10:41;96059.22;;;23.10;31.78
34742;BME280;20968;42.696;23.360;2022-10-16T14:13:14;96059.03;;;22.90;31.43
34742;BME280;20968;42.696;23.360;2022-10-16T14:15:46;96062.38;;;22.75;32.26
34742;BME280;20968;42.696;23.360;2022-10-16T14:18:18;96067.53;;;22.72;32.46
34742;BME280;20968;42.696;23.360;2022-10-16T14:20:45;96068.97;;;22.78;32.39
34742;BME280;20968;42.696;23.360;2022-10-16T14:23:39;96068.25;;;22.59;32.12
34742;BME280;20968;42.696;23.360;2022-10-16T14:26:19;96077.84;;;22.51;32.33
34742;BME280;20968;42.696;23.360;2022-10-16T14:28:46;96072.59;;;22.10;32.95
34742;BME280;20968;42.696;23.360;2022-10-16T14:33:53;96071.00;;;21.60;33.31
34742;BME280;20968;42.696;23.360;2022-10-16T14:36:19;96071.88;;;21.25;33.66
34742;BME280;20968;42.696;23.360;2022-10-16T14:39:17;96078.72;;;21.30;33.67
34742;BME280;20968;42.696;23.360;2022-10-16T14:41:46;96081.81;;;21.03;33.90
34742;BME280;20968;42.696;23.360;2022-10-16T14:44:12;96078.19;;;20.78;34.47
34742;BME280;20968;42.696;23.360;2022-10-16T14:46:41;96092.72;;;20.77;34.67
34742;BME280;20968;42.696;23.360;2022-10-16T14:51:41;96094.31;;;20.37;34.99
34742;BME280;20968;42.696;23.360;2022-10-16T14:54:14;96090.13;;;20.15;35.69
34742;BME280;20968;42.696;23.360;2022-10-16T14:56:51;96094.97;;;20.14;36.30
34742;BME280;20968;42.696;23.360;2022-10-16T14:59:39;96092.53;;;20.00;36.44
34742;BME280;20968;42.696;23.360;2022-10-16T15:02:35;96103.03;;;19.72;36.99
34742;BME280;20968;42.696;23.360;2022-10-16T15:05:23;96099.91;;;19.35;38.02
34742;BME280;20968;42.696;23.360;2022-10-16T15:07:55;96098.41;;;19.07;38.73